LFLB/CMF METAR and TAF weather

Enter ICAO airport designator
Station Type Date Time Source
LFLB METAR 2020/04/03 07:00 UTC NOAA

LFLB 030700Z AUTO VRB02KT CAVOK 04/02 Q1016 NOSIG


Station Type Date Time Source
LFLB Decoded METAR 2020/04/03 07:00 UTC NOAA

Chambery / Aix-Les-Bains, France (LFLB) 45-39N 005-53E 239M
Apr 03, 2020 - 03:00 AM EDT / 2020.04.03 0700 UTC
Wind: Variable at 2 MPH (2 KT):0
Visibility: greater than 7 mile(s):0
Temperature: 39 F (4 C)
Dew Point: 35 F (2 C)
Relative Humidity: 86%
Pressure (altimeter): 30.00 in. Hg (1016 hPa)
ob: LFLB 030700Z AUTO VRB02KT CAVOK 04/02 Q1016 NOSIG
cycle: 7

Station Type Date Time Source
LFLB TAF 2020/04/03 06:21 UTC NOAA

TAF LFLB 030500Z 0306/0406 VRB02KT CAVOK
BECMG 0307/0309 36010KT

Example: see airport list